createdAt,value
2017-12-02T00:01:41.170Z,92.72
2017-12-02T00:04:16.132Z,92.65
2017-12-02T00:06:51.344Z,92.64
2017-12-02T00:09:26.392Z,92.62
2017-12-02T00:12:01.412Z,92.59
2017-12-02T00:14:35.920Z,92.58
2017-12-02T00:17:11.257Z,92.21
2017-12-02T00:19:45.825Z,92.28
2017-12-02T00:22:20.885Z,92.40
2017-12-02T00:24:55.372Z,92.45
2017-12-02T00:27:29.936Z,92.47
2017-12-02T00:30:05.305Z,92.30
2017-12-02T00:32:40.172Z,92.46
2017-12-02T00:35:14.976Z,92.52
2017-12-02T00:37:50.206Z,92.65
2017-12-02T00:40:24.579Z,92.67
2017-12-02T00:42:59.861Z,92.68
2017-12-02T00:45:34.577Z,92.74
2017-12-02T00:48:09.632Z,92.78
2017-12-02T00:50:44.878Z,92.82
2017-12-02T00:53:19.848Z,92.83
2017-12-02T00:55:54.816Z,92.74
2017-12-02T00:58:29.719Z,92.68
2017-12-02T01:01:04.902Z,92.73
2017-12-02T01:03:39.927Z,92.83
2017-12-02T01:06:15.228Z,92.99
2017-12-02T01:08:50.156Z,93.12
2017-12-02T01:11:25.339Z,93.21
2017-12-02T01:13:59.648Z,93.24
2017-12-02T01:16:34.724Z,93.26
2017-12-02T01:19:10.040Z,93.28
2017-12-02T01:21:45.237Z,93.24
2017-12-02T01:24:19.498Z,93.20
2017-12-02T01:26:53.892Z,93.12
2017-12-02T01:29:29.254Z,93.10
2017-12-02T01:32:04.324Z,93.13
2017-12-02T01:34:39.329Z,93.20
2017-12-02T01:37:14.360Z,93.28
2017-12-02T01:39:49.644Z,93.28
2017-12-02T01:42:24.745Z,93.36
2017-12-02T01:44:59.665Z,93.46
2017-12-02T01:47:34.802Z,93.49
2017-12-02T01:50:09.692Z,93.54
2017-12-02T01:52:44.704Z,93.59
2017-12-02T01:55:19.733Z,93.67
2017-12-02T01:57:54.358Z,93.76
2017-12-02T02:00:29.056Z,93.86
2017-12-02T02:03:03.492Z,93.94
2017-12-02T02:05:38.562Z,94.00
2017-12-02T02:08:13.529Z,94.03
2017-12-02T02:10:48.500Z,93.94
2017-12-02T02:13:23.939Z,93.75
2017-12-02T02:15:58.861Z,93.60
2017-12-02T02:18:34.080Z,93.67
2017-12-02T02:21:09.316Z,93.79
2017-12-02T02:23:43.985Z,93.89
2017-12-02T02:26:19.145Z,93.95
2017-12-02T02:28:54.477Z,93.87
2017-12-02T02:31:29.514Z,93.84
2017-12-02T02:34:04.676Z,93.92
2017-12-02T02:36:39.510Z,94.10
2017-12-02T02:39:14.017Z,94.18
2017-12-02T02:41:49.120Z,94.12
2017-12-02T02:44:24.192Z,94.00
2017-12-02T02:46:59.234Z,93.97
2017-12-02T02:49:34.155Z,93.97
2017-12-02T02:52:09.092Z,94.01
2017-12-02T02:54:43.993Z,94.06
2017-12-02T02:57:18.825Z,94.13
2017-12-02T02:59:53.554Z,94.17
2017-12-02T03:02:28.575Z,94.23
2017-12-02T03:05:03.588Z,94.18
2017-12-02T03:07:38.777Z,94.35
2017-12-02T03:10:13.298Z,94.44
2017-12-02T03:12:48.056Z,94.51
2017-12-02T03:15:23.022Z,94.56
2017-12-02T03:17:57.800Z,94.65
2017-12-02T03:20:32.848Z,94.73
2017-12-02T03:23:07.709Z,94.81
2017-12-02T03:25:42.708Z,94.82
2017-12-02T03:28:17.612Z,94.89
2017-12-02T03:30:52.543Z,94.89
2017-12-02T03:33:27.492Z,94.90
2017-12-02T03:36:02.000Z,94.86
2017-12-02T03:38:36.648Z,94.89
2017-12-02T03:41:11.393Z,95.00
2017-12-02T03:43:45.733Z,95.06
2017-12-02T03:46:19.891Z,95.08
2017-12-02T03:48:54.729Z,95.02
2017-12-02T03:51:29.437Z,94.98
2017-12-02T03:54:04.389Z,94.98
2017-12-02T03:56:39.533Z,95.07
2017-12-02T03:59:14.107Z,95.14
2017-12-02T04:01:48.917Z,95.25
2017-12-02T04:04:23.748Z,95.40
2017-12-02T04:06:58.376Z,95.51
2017-12-02T04:09:33.277Z,95.44
2017-12-02T04:12:08.131Z,95.36
2017-12-02T04:14:42.631Z,95.33
2017-12-02T04:17:17.188Z,95.28
2017-12-02T04:19:51.984Z,95.21
2017-12-02T04:22:26.648Z,95.16
2017-12-02T04:25:01.245Z,95.14
2017-12-02T04:27:36.084Z,95.06
2017-12-02T04:30:10.709Z,95.11
2017-12-02T04:32:45.676Z,95.09
2017-12-02T04:35:19.869Z,95.05
2017-12-02T04:37:54.656Z,94.95
2017-12-02T04:40:29.199Z,94.92
2017-12-02T04:43:04.308Z,94.84
2017-12-02T04:45:39.372Z,94.79
2017-12-02T04:48:13.673Z,94.77
2017-12-02T04:50:48.796Z,94.77
2017-12-02T04:53:23.748Z,94.72
2017-12-02T04:55:58.800Z,94.67
2017-12-02T04:58:34.142Z,94.57
2017-12-02T05:01:08.716Z,94.47
2017-12-02T05:03:43.594Z,94.38
2017-12-02T05:06:18.516Z,94.47
2017-12-02T05:08:53.243Z,94.64
2017-12-02T05:11:27.976Z,94.77
2017-12-02T05:14:02.772Z,94.95
2017-12-02T05:16:37.041Z,95.12
2017-12-02T05:19:11.861Z,95.07
2017-12-02T05:21:46.433Z,95.00
2017-12-02T05:24:21.340Z,94.99
2017-12-02T05:26:56.052Z,95.02
2017-12-02T05:29:30.770Z,95.02
2017-12-02T05:32:05.509Z,94.98
2017-12-02T05:34:40.328Z,94.87
2017-12-02T05:37:14.658Z,94.83
2017-12-02T05:39:49.507Z,94.78
2017-12-02T05:42:23.825Z,94.75
2017-12-02T05:44:58.584Z,94.79
2017-12-02T05:47:33.493Z,94.77
2017-12-02T05:50:08.058Z,94.70
2017-12-02T05:52:42.948Z,94.69
2017-12-02T05:55:17.652Z,94.72
2017-12-02T05:57:52.816Z,94.67
2017-12-02T06:00:27.728Z,94.63
2017-12-02T06:03:01.989Z,94.55
2017-12-02T06:05:36.240Z,94.39
2017-12-02T06:08:11.199Z,94.15
2017-12-02T06:10:46.026Z,94.01
2017-12-02T06:13:20.609Z,93.92
2017-12-02T06:15:54.517Z,93.87
2017-12-02T06:18:29.221Z,93.71
2017-12-02T06:21:03.689Z,93.47
2017-12-02T06:23:38.765Z,93.19
2017-12-02T06:26:13.454Z,93.01
2017-12-02T06:28:48.020Z,92.93
2017-12-02T06:31:22.645Z,92.56
2017-12-02T06:33:57.573Z,92.13
2017-12-02T06:36:32.605Z,91.67
2017-12-02T06:39:07.040Z,91.03
2017-12-02T06:41:42.380Z,90.51
2017-12-02T06:44:16.320Z,90.25
2017-12-02T06:46:51.002Z,90.16
2017-12-02T06:49:25.616Z,90.09
2017-12-02T06:52:00.463Z,90.12
2017-12-02T06:54:35.120Z,90.12
2017-12-02T06:57:09.328Z,89.99
2017-12-02T06:59:44.412Z,89.57
2017-12-02T07:02:19.336Z,89.45
2017-12-02T07:04:53.932Z,89.47
2017-12-02T07:07:28.641Z,89.46
2017-12-02T07:10:03.546Z,89.47
2017-12-02T07:12:38.413Z,89.43
2017-12-02T07:15:13.203Z,89.41
2017-12-02T07:17:47.248Z,88.07
2017-12-02T07:20:22.072Z,87.93
2017-12-02T07:22:56.103Z,87.44
2017-12-02T07:25:31.127Z,87.46
2017-12-02T07:28:05.784Z,87.70
2017-12-02T07:30:40.605Z,87.54
2017-12-02T07:33:15.008Z,87.46
2017-12-02T07:35:49.804Z,87.73
2017-12-02T07:38:24.775Z,88.10
2017-12-02T07:40:59.495Z,88.48
2017-12-02T07:43:34.226Z,88.78
2017-12-02T07:46:08.698Z,88.79
2017-12-02T07:48:43.545Z,88.34
2017-12-02T07:51:18.014Z,87.85
2017-12-02T07:53:52.684Z,87.68
2017-12-02T07:56:27.540Z,87.46
2017-12-02T07:59:01.812Z,87.51
2017-12-02T08:01:36.592Z,87.41
2017-12-02T08:04:11.443Z,87.80
2017-12-02T08:06:46.193Z,87.79
2017-12-02T08:09:21.000Z,87.92
2017-12-02T08:11:55.901Z,88.34
2017-12-02T08:14:30.784Z,88.44
2017-12-02T08:17:05.565Z,88.67
2017-12-02T08:19:40.632Z,88.03
2017-12-02T08:22:16.860Z,87.81
2017-12-02T08:24:51.345Z,87.99
2017-12-02T08:27:25.425Z,87.83
2017-12-02T08:29:59.956Z,87.69
2017-12-02T08:32:34.762Z,87.60
2017-12-02T08:35:09.451Z,87.91
2017-12-02T08:37:44.358Z,88.10
2017-12-02T08:40:19.360Z,88.48
2017-12-02T08:42:54.420Z,88.65
2017-12-02T08:45:29.141Z,88.53
2017-12-02T08:48:04.051Z,88.50
2017-12-02T08:50:38.816Z,88.43
2017-12-02T08:53:13.694Z,88.33
2017-12-02T08:55:48.532Z,88.28
2017-12-02T08:58:23.188Z,88.70
2017-12-02T09:00:57.916Z,88.31
2017-12-02T09:03:32.500Z,87.64
2017-12-02T09:06:07.124Z,87.18
2017-12-02T09:08:41.856Z,87.15
2017-12-02T09:11:15.977Z,87.50
2017-12-02T09:13:51.053Z,87.70
2017-12-02T09:16:25.466Z,88.13
2017-12-02T09:19:00.488Z,87.91
2017-12-02T09:21:34.784Z,87.75
2017-12-02T09:24:09.108Z,87.72
2017-12-02T09:26:43.978Z,87.87
2017-12-02T09:29:18.792Z,88.26
2017-12-02T09:31:53.801Z,88.49
2017-12-02T09:34:28.648Z,88.37
2017-12-02T09:37:03.228Z,88.11
2017-12-02T09:39:38.111Z,88.19
2017-12-02T09:42:13.165Z,88.41
2017-12-02T09:44:47.435Z,88.27
2017-12-02T09:47:21.584Z,88.00
2017-12-02T09:49:56.334Z,88.42
2017-12-02T09:52:31.157Z,88.74
2017-12-02T09:55:05.248Z,88.48
2017-12-02T09:57:40.236Z,88.50
2017-12-02T10:00:15.141Z,88.54
2017-12-02T10:02:50.108Z,88.49
2017-12-02T10:05:24.895Z,88.18
2017-12-02T10:07:59.126Z,88.44
2017-12-02T10:10:33.711Z,88.80
2017-12-02T10:13:07.897Z,88.53
2017-12-02T10:15:42.477Z,88.46
2017-12-02T10:18:17.107Z,88.64
2017-12-02T10:20:51.925Z,88.84
2017-12-02T10:23:26.509Z,88.91
2017-12-02T10:26:01.211Z,88.67
2017-12-02T10:28:35.524Z,88.90
2017-12-02T10:31:10.032Z,88.74
2017-12-02T10:33:44.731Z,88.84
2017-12-02T10:36:19.400Z,88.75
2017-12-02T10:38:53.480Z,88.99
2017-12-02T10:41:28.456Z,88.81
2017-12-02T10:44:03.484Z,89.02
2017-12-02T10:46:38.460Z,89.75
2017-12-02T10:49:12.541Z,89.76
2017-12-02T10:51:47.344Z,89.91
2017-12-02T10:54:22.296Z,90.12
2017-12-02T10:56:56.900Z,90.33
2017-12-02T10:59:31.648Z,90.37
2017-12-02T11:02:06.277Z,90.44
2017-12-02T11:04:41.109Z,90.26
2017-12-02T11:07:16.322Z,89.99
2017-12-02T11:09:51.397Z,89.81
2017-12-02T11:12:26.269Z,89.68
2017-12-02T11:15:01.449Z,89.65
2017-12-02T11:17:36.433Z,90.20
2017-12-02T11:20:11.024Z,90.22
2017-12-02T11:22:46.028Z,90.08
2017-12-02T11:25:20.984Z,90.30
2017-12-02T11:27:55.992Z,89.87
2017-12-02T11:30:30.761Z,89.85
2017-12-02T11:33:05.472Z,89.96
2017-12-02T11:35:40.001Z,90.18
2017-12-02T11:38:14.301Z,90.32
2017-12-02T11:40:49.129Z,89.85
2017-12-02T11:43:23.976Z,89.80
2017-12-02T11:45:59.241Z,89.55
2017-12-02T11:48:33.863Z,89.35
2017-12-02T11:51:09.024Z,89.50
2017-12-02T11:53:43.837Z,89.35
2017-12-02T11:56:18.849Z,89.75
2017-12-02T11:58:53.482Z,90.05
2017-12-02T12:01:28.080Z,89.98
2017-12-02T12:04:03.344Z,89.69
2017-12-02T12:06:37.788Z,89.35
2017-12-02T12:09:13.037Z,88.98
2017-12-02T12:11:47.784Z,88.75
2017-12-02T12:14:22.768Z,88.79
2017-12-02T12:16:57.496Z,88.84
2017-12-02T12:19:32.176Z,88.82
2017-12-02T12:22:07.073Z,88.94
2017-12-02T12:24:42.034Z,88.58
2017-12-02T12:27:17.252Z,88.36
2017-12-02T12:29:51.988Z,88.07
2017-12-02T12:32:27.056Z,88.19
2017-12-02T12:35:02.146Z,88.13
2017-12-02T12:37:36.861Z,87.58
2017-12-02T12:40:11.868Z,87.94
2017-12-02T12:42:46.570Z,87.53
2017-12-02T12:45:21.350Z,87.37
2017-12-02T12:47:56.276Z,87.63
2017-12-02T12:50:31.031Z,87.72
2017-12-02T12:53:05.904Z,87.48
2017-12-02T12:55:40.860Z,87.23
2017-12-02T12:58:15.788Z,86.99
2017-12-02T13:00:50.712Z,87.16
2017-12-02T13:03:25.468Z,87.78
2017-12-02T13:06:00.496Z,87.71
2017-12-02T13:08:35.700Z,87.38
2017-12-02T13:11:10.708Z,87.08
2017-12-02T13:13:45.113Z,87.07
2017-12-02T13:16:19.565Z,86.91
2017-12-02T13:18:54.362Z,86.79
2017-12-02T13:21:29.449Z,86.63
2017-12-02T13:24:04.668Z,87.14
2017-12-02T13:26:40.045Z,87.22
2017-12-02T13:29:14.581Z,87.25
2017-12-02T13:31:49.833Z,87.15
2017-12-02T13:34:25.232Z,86.82
2017-12-02T13:37:00.536Z,87.00
2017-12-02T13:39:35.788Z,87.01
2017-12-02T13:42:10.216Z,86.57
2017-12-02T13:44:45.160Z,87.40
2017-12-02T13:47:20.185Z,87.34
2017-12-02T13:49:55.203Z,87.48
2017-12-02T13:52:30.044Z,87.48
2017-12-02T13:55:05.012Z,87.93
2017-12-02T13:57:39.936Z,88.24
2017-12-02T14:00:14.964Z,88.16
2017-12-02T14:02:50.025Z,88.25
2017-12-02T14:05:24.758Z,88.28
2017-12-02T14:07:59.812Z,88.49
2017-12-02T14:10:34.631Z,88.63
2017-12-02T14:13:09.086Z,88.54
2017-12-02T14:15:44.408Z,88.77
2017-12-02T14:18:19.236Z,88.73
2017-12-02T14:20:54.556Z,88.54
2017-12-02T14:23:29.765Z,88.54
2017-12-02T14:26:04.888Z,88.42
2017-12-02T14:28:39.333Z,88.47
2017-12-02T14:31:14.545Z,90.31
2017-12-02T14:33:49.104Z,96.32
2017-12-02T14:36:23.593Z,97.59
2017-12-02T14:38:58.456Z,95.86
2017-12-02T14:41:33.584Z,88.75
2017-12-02T14:44:08.936Z,87.62
2017-12-02T14:46:43.840Z,88.03
2017-12-02T14:49:18.597Z,83.30
2017-12-02T14:51:53.649Z,86.40
2017-12-02T14:54:28.477Z,79.92
2017-12-02T14:57:03.778Z,83.09
2017-12-02T14:59:38.788Z,87.83
2017-12-02T15:02:13.489Z,85.26
2017-12-02T15:04:48.184Z,86.48
2017-12-02T15:07:23.024Z,78.08
2017-12-02T15:09:57.767Z,77.60
2017-12-02T15:12:32.413Z,79.33
2017-12-02T15:15:06.638Z,81.44
2017-12-02T15:17:41.932Z,83.31
2017-12-02T15:20:16.592Z,84.82
2017-12-02T15:22:51.637Z,85.90
2017-12-02T15:25:26.389Z,86.60
2017-12-02T15:28:01.218Z,87.24
2017-12-02T15:30:36.200Z,87.67
2017-12-02T15:33:10.977Z,88.29
2017-12-02T15:35:45.878Z,88.87
2017-12-02T15:38:21.100Z,89.20
2017-12-02T15:40:56.117Z,89.65
2017-12-02T15:43:31.016Z,89.97
2017-12-02T15:46:05.500Z,89.96
2017-12-02T15:48:39.952Z,89.76
2017-12-02T15:51:15.040Z,89.65
2017-12-02T15:53:49.961Z,89.68
2017-12-02T15:56:24.640Z,89.74
2017-12-02T15:58:59.300Z,89.66
2017-12-02T16:01:34.020Z,89.99
2017-12-02T16:04:09.029Z,90.30
2017-12-02T16:06:43.533Z,90.41
2017-12-02T16:09:18.336Z,90.21
2017-12-02T16:11:53.297Z,90.35
2017-12-02T16:14:27.797Z,90.15
2017-12-02T16:17:02.635Z,90.02
2017-12-02T16:19:37.196Z,90.39
2017-12-02T16:22:12.223Z,90.45
2017-12-02T16:24:46.929Z,90.47
2017-12-02T16:27:21.663Z,90.56
2017-12-02T16:29:56.959Z,90.49
2017-12-02T16:32:31.769Z,90.80
2017-12-02T16:35:06.593Z,90.66
2017-12-02T16:37:41.217Z,90.82
2017-12-02T16:40:15.977Z,90.90
2017-12-02T16:42:50.980Z,90.88
2017-12-02T16:45:26.233Z,90.89
2017-12-02T16:48:01.260Z,90.41
2017-12-02T16:50:36.326Z,90.57
2017-12-02T16:53:10.816Z,90.76
2017-12-02T16:55:44.941Z,90.91
2017-12-02T16:58:19.850Z,90.55
2017-12-02T17:00:54.925Z,90.18
2017-12-02T17:03:30.108Z,90.22
2017-12-02T17:06:04.630Z,90.21
2017-12-02T17:08:39.801Z,90.53
2017-12-02T17:11:14.914Z,90.62
2017-12-02T17:13:49.706Z,90.49
2017-12-02T17:16:24.933Z,90.35
2017-12-02T17:19:00.028Z,90.73
2017-12-02T17:21:34.707Z,90.80
2017-12-02T17:24:09.685Z,91.19
2017-12-02T17:26:44.937Z,90.91
2017-12-02T17:29:19.645Z,90.99
2017-12-02T17:31:54.118Z,90.91
2017-12-02T17:34:28.805Z,90.49
2017-12-02T17:37:03.731Z,90.59
2017-12-02T17:39:38.136Z,91.07
2017-12-02T17:42:12.754Z,91.12
2017-12-02T17:44:47.474Z,90.99
2017-12-02T17:47:22.743Z,91.18
2017-12-02T17:49:57.823Z,95.69
2017-12-02T17:52:32.552Z,94.54
2017-12-02T17:55:07.342Z,90.64
2017-12-02T17:57:42.628Z,88.54
2017-12-02T18:00:17.681Z,88.63
2017-12-02T18:02:52.215Z,89.07
2017-12-02T18:05:26.789Z,89.44
2017-12-02T18:08:02.025Z,89.82
2017-12-02T18:10:37.108Z,89.98
2017-12-02T18:13:12.349Z,90.26
2017-12-02T18:15:47.392Z,90.44
2017-12-02T18:18:22.361Z,90.36
2017-12-02T18:20:57.226Z,90.70
2017-12-02T18:23:32.344Z,90.84
2017-12-02T18:26:07.169Z,91.24
2017-12-02T18:28:42.083Z,91.44
2017-12-02T18:31:16.811Z,91.60
2017-12-02T18:33:51.684Z,91.92
2017-12-02T18:36:26.871Z,91.89
2017-12-02T18:39:01.935Z,91.72
2017-12-02T18:41:37.060Z,91.38
2017-12-02T18:44:12.220Z,91.49
2017-12-02T18:46:47.248Z,91.58
2017-12-02T18:49:22.425Z,91.71
2017-12-02T18:51:57.520Z,91.87
2017-12-02T18:54:32.451Z,91.87
2017-12-02T18:57:07.165Z,92.03
2017-12-02T18:59:42.424Z,91.92
2017-12-02T19:02:17.765Z,92.03
2017-12-02T19:04:52.911Z,92.11
2017-12-02T19:07:27.154Z,92.04
2017-12-02T19:10:01.664Z,91.84
2017-12-02T19:12:36.798Z,91.93
2017-12-02T19:15:12.120Z,91.78
2017-12-02T19:17:47.472Z,91.84
2017-12-02T19:20:22.298Z,91.52
2017-12-02T19:22:56.807Z,91.53
2017-12-02T19:25:32.160Z,91.45
2017-12-02T19:28:06.930Z,91.74
2017-12-02T19:30:42.236Z,91.93
2017-12-02T19:33:17.388Z,91.88
2017-12-02T19:35:52.306Z,92.03
2017-12-02T19:38:27.019Z,92.44
2017-12-02T19:41:02.072Z,92.66
2017-12-02T19:43:36.805Z,92.73
2017-12-02T19:46:12.055Z,92.63
2017-12-02T19:48:46.957Z,92.52
2017-12-02T19:51:21.841Z,92.42
2017-12-02T19:53:56.764Z,92.76
2017-12-02T19:56:31.593Z,92.96
2017-12-02T19:59:06.385Z,93.20
2017-12-02T20:01:41.631Z,93.04
2017-12-02T20:04:15.676Z,93.13
2017-12-02T20:06:50.616Z,93.17
2017-12-02T20:09:25.424Z,93.13
2017-12-02T20:12:00.460Z,93.23
2017-12-02T20:14:35.296Z,93.35
2017-12-02T20:17:10.325Z,93.24
2017-12-02T20:19:44.827Z,93.00
2017-12-02T20:22:19.469Z,92.79
2017-12-02T20:24:54.336Z,92.77
2017-12-02T20:27:29.652Z,92.76
2017-12-02T20:30:03.903Z,92.74
2017-12-02T20:32:39.096Z,92.93
2017-12-02T20:35:13.837Z,92.97
2017-12-02T20:37:48.981Z,92.95
2017-12-02T20:40:24.040Z,93.05
2017-12-02T20:42:58.808Z,93.17
2017-12-02T20:45:33.900Z,92.99
2017-12-02T20:48:08.986Z,92.83
2017-12-02T20:50:44.132Z,92.85
2017-12-02T20:53:18.944Z,93.00
2017-12-02T20:55:54.325Z,92.83
2017-12-02T20:58:29.232Z,92.69
2017-12-02T21:01:04.057Z,92.90
2017-12-02T21:03:38.857Z,92.98
2017-12-02T21:06:13.332Z,92.72
2017-12-02T21:08:48.281Z,92.92
2017-12-02T21:11:23.291Z,93.03
2017-12-02T21:13:58.046Z,92.98
2017-12-02T21:16:32.981Z,93.26
2017-12-02T21:19:07.806Z,93.08
2017-12-02T21:21:43.162Z,92.98
2017-12-02T21:24:17.607Z,93.18
2017-12-02T21:26:52.721Z,93.07
2017-12-02T21:29:27.311Z,93.10
2017-12-02T21:32:01.866Z,93.19
2017-12-02T21:34:37.394Z,93.31
2017-12-02T21:37:12.740Z,93.30
2017-12-02T21:39:47.896Z,93.29
2017-12-02T21:42:22.604Z,93.35
2017-12-02T21:44:57.446Z,93.35
2017-12-02T21:47:32.484Z,93.60
2017-12-02T21:50:07.511Z,93.72
2017-12-02T21:52:42.320Z,93.48
2017-12-02T21:55:17.372Z,93.64
2017-12-02T21:57:51.692Z,93.85
2017-12-02T22:00:26.201Z,93.97
2017-12-02T22:03:01.377Z,93.97
2017-12-02T22:05:36.405Z,93.98
2017-12-02T22:08:11.312Z,95.76
2017-12-02T22:10:46.328Z,96.64
2017-12-02T22:13:21.012Z,97.10
2017-12-02T22:15:55.504Z,96.37
2017-12-02T22:18:30.159Z,94.76
2017-12-02T22:21:05.279Z,93.14
2017-12-02T22:23:40.308Z,92.09
2017-12-02T22:26:15.257Z,91.91
2017-12-02T22:28:49.792Z,92.03
2017-12-02T22:31:25.098Z,92.04
2017-12-02T22:34:00.344Z,92.35
2017-12-02T22:36:35.472Z,93.06
2017-12-02T22:39:10.596Z,92.92
2017-12-02T22:41:45.344Z,94.13
2017-12-02T22:44:19.754Z,94.05
2017-12-02T22:46:54.619Z,95.51
2017-12-02T22:49:30.080Z,93.69
2017-12-02T22:52:04.874Z,92.61
2017-12-02T22:54:40.120Z,92.60
2017-12-02T22:57:14.251Z,94.04
2017-12-02T22:59:49.603Z,93.60
2017-12-02T23:02:24.400Z,94.29
2017-12-02T23:04:59.517Z,93.12
2017-12-02T23:07:34.266Z,93.00
2017-12-02T23:10:09.088Z,92.23
2017-12-02T23:12:44.086Z,93.52
2017-12-02T23:15:18.620Z,92.47
2017-12-02T23:17:53.433Z,92.38
2017-12-02T23:20:28.349Z,91.78
2017-12-02T23:23:03.172Z,93.68
2017-12-02T23:25:37.343Z,94.50
2017-12-02T23:28:12.633Z,92.89
2017-12-02T23:30:47.755Z,92.37
2017-12-02T23:33:22.933Z,91.83
2017-12-02T23:35:58.064Z,91.21
2017-12-02T23:38:32.996Z,91.03
2017-12-02T23:41:07.863Z,90.90
2017-12-02T23:43:42.693Z,91.11
2017-12-02T23:46:17.589Z,92.46
2017-12-02T23:48:52.716Z,93.11
2017-12-02T23:51:27.637Z,92.87
2017-12-02T23:54:02.884Z,92.25
2017-12-02T23:56:38.120Z,91.33
2017-12-02T23:59:13.228Z,91.39
